Thorn Hill, Tennessee
Current Conditions -  °F | °C
As of 1:15 AM on Monday 26 Jan 2015 (Local Time) from KMOR Reporting Station
Broken Clouds Broken Clouds  
Wind Chill: 39°   Ceiling: 3000
Heat Index: 43°   Visibility: 10mi
Dew Point: 41°   Wind: 6mph
Humidity: 93%   Direction: 230°SW
Pressure: 29.66"   Gusts: NA
Location:  36.36°N, 83.42°W
Report Text: KMOR 260615Z AUTO 23005KT 10SM BKN030 06/05 A2966 RMK
Loading
Personal Weather Stations






























Interactive Weather Map New forecast layout! Learn more

10-Day Weather Forecast

Advertisements
Track Severe Weather on mobile